LIMC/MXP METAR and TAF weather

Enter ICAO airport designator
Station Type Date Time Source
LIMC METAR 2020/11/25 23:20 UTC NOAA

LIMC 252320Z 02004KT CAVOK M01/M01 Q1025 NOSIG


Station Type Date Time Source
LIMC Decoded METAR 2020/11/25 23:20 UTC NOAA

Milano / Malpensa, Italy (LIMC) 45-37N 008-44E 211M
Nov 25, 2020 - 06:20 PM EST / 2020.11.25 2320 UTC
Wind: from the NNE (020 degrees) at 5 MPH (4 KT):0
Visibility: greater than 7 mile(s):0
Temperature: 30 F (-1 C)
Windchill: 24 F (-4 C):1
Dew Point: 30 F (-1 C)
Relative Humidity: 100%
Pressure (altimeter): 30.27 in. Hg (1025 hPa)
ob: LIMC 252320Z 02004KT CAVOK M01/M01 Q1025 NOSIG
cycle: 23

Station Type Date Time Source
LIMC TAF 2020/11/25 18:21 UTC NOAA

TAF LIMC 251700Z 2518/2624 VRB04KT CAVOK
TEMPO 2600/2607 3000 BCFG

Example: see airport list